Athena, OR

4:58 PM PDT on September 30, 2014 (GMT -0700)
High School | Change Station
CLOSE
Current Station
Personal Weather Station
Location: Helix, OR
Elevation: 1754 ft
Nearby Weather Stations

Elev 1754 ft 45.85 °N, 118.65 °W | Updated 2 minutes ago

Mostly Cloudy
Mostly Cloudy
65.4 °F
Feels Like 65.4 °F
N
1.0
Wind Variable Wind from West
Gusts 13.0 mph

Today
High -- | Low -- °F
--% Chance of Precip.
Yesterday
High -- | Low -- °F
Precip. -- in
6:51 AM 6:35 PM
Waxing Crescent, 41% visible
Pressure 29.99 in
Visibility 10.0 miles
Clouds Few 6500 ft
Scattered Clouds 9500 ft
Mostly Cloudy 11000 ft
Dew Point 38 °F
Humidity 37%
Rainfall 0.00 in
Snow Depth 0 in , 0 in , 0 in
UV 1 out of 12
Pollen 4.70 out of 12
Air Quality Not available.
Flu Activity Not available.
SPECI KPDT 302315Z 34014KT 10SM FEW065 SCT095 BKN110 18/02 A2999 RMK AO2 WSHFT 2255 T01780017

More Conditions Fewer Conditions

Pressure 29.99 in
Visibility 10.0 miles
Clouds Few 6500 ft
Scattered Clouds 9500 ft
Mostly Cloudy 11000 ft
Dew Point 38 °F
Humidity 37%
Rainfall 0.00 in
Snow Depth 0 in , 0 in , 0 in
UV 1 out of 12
Pollen 4.70 out of 12
Air Quality Not available.
Flu Activity Not available.
SPECI KPDT 302315Z 34014KT 10SM FEW065 SCT095 BKN110 18/02 A2999 RMK AO2 WSHFT 2255 T01780017

More Conditions Fewer Conditions

10-Day Weather Forecast

Almanac

Astronomy

Sep. 30, 2014 Rise Set
Actual Time 6:51 AM PDT 6:35 PM PDT
Civil Twilight 6:21 AM PDT 7:05 PM PDT
Nautical Twilight 5:46 AM PDT 7:39 PM PDT
Astronomical Twilight 5:11 AM PDT 8:15 PM PDT
Moon 1:17 PM PDT 10:56 PM PDT
Length of Visible Light 12h 43m
Length of Day
11h 44m
Tomorrow will be 3m 13s shorter.
Waxing Crescent, 41% of the Moon is Illuminated
Today
Waxing Crescent
Oct 1
First Quarter
Oct 8
Full
Oct 15
Last Quarter
Oct 23
New

Today's Extremes

State Highs State Lows

Community

WunderPhotos

Upload Photos

1,757,785 photos uploaded!

Nearby

Snow Depth

Station Depth Elevation
Peavine Ridge 0 in 3500 ft
New Crescent Lake 0 in 4800 ft
Silver Creek 0 in 5720 ft
Sevenmile Marsh 0 in 6200 ft
Diamond Lake 0 in 5315 ft

Earthquake Activity

City Distance Mag. Time & Date
No recent earthquake activity has been reported nearby.
Minimum magnitude displayed is 2.5.

Coastal Water Temperatures

Place Temperature
No Stations Reporting

Nearby Weather Stations